createdAt,value
2019-02-07T00:02:00.533Z,20.52
2019-02-07T00:04:31.880Z,14.55
2019-02-07T00:07:05.292Z,19.67
2019-02-07T00:09:37.047Z,16.57
2019-02-07T00:12:22.725Z,16.70
2019-02-07T00:15:11.859Z,19.60
2019-02-07T00:18:06.777Z,16.80
2019-02-07T00:20:55.106Z,17.73
2019-02-07T00:23:49.310Z,12.70
2019-02-07T00:26:25.590Z,17.87
2019-02-07T00:29:20.066Z,13.88
2019-02-07T00:32:16.498Z,17.52
2019-02-07T00:34:48.750Z,17.07
2019-02-07T00:37:22.141Z,16.27
2019-02-07T00:39:53.319Z,15.48
2019-02-07T00:42:29.071Z,16.15
2019-02-07T00:45:19.034Z,20.15
2019-02-07T00:47:55.420Z,17.77
2019-02-07T00:50:26.819Z,17.03
2019-02-07T00:52:59.017Z,18.50
2019-02-07T00:55:31.541Z,19.85
2019-02-07T00:58:08.889Z,16.52
2019-02-07T01:00:44.957Z,13.43
2019-02-07T01:03:16.492Z,17.85
2019-02-07T01:05:49.292Z,14.05
2019-02-07T01:08:20.801Z,14.80
2019-02-07T01:10:52.378Z,14.55
2019-02-07T01:13:23.846Z,15.65
2019-02-07T01:15:56.422Z,15.35
2019-02-07T01:18:27.815Z,17.63
2019-02-07T01:21:02.395Z,14.20
2019-02-07T01:23:50.994Z,15.28
2019-02-07T01:26:24.018Z,19.23
2019-02-07T01:28:55.161Z,14.00
2019-02-07T01:31:26.668Z,15.23
2019-02-07T01:33:57.826Z,14.25
2019-02-07T01:36:29.365Z,15.80
2019-02-07T01:39:03.944Z,17.00
2019-02-07T01:41:35.459Z,16.12
2019-02-07T01:44:08.302Z,15.50
2019-02-07T01:46:39.934Z,15.13
2019-02-07T01:49:11.320Z,10.53
2019-02-07T01:51:43.009Z,11.70
2019-02-07T01:54:14.562Z,12.88
2019-02-07T01:56:46.731Z,12.37
2019-02-07T01:59:20.743Z,12.18
2019-02-07T02:02:05.938Z,11.57
2019-02-07T02:04:41.969Z,10.90
2019-02-07T02:07:13.715Z,13.35
2019-02-07T02:09:48.276Z,10.40
2019-02-07T02:12:41.815Z,10.03
2019-02-07T02:15:23.980Z,10.20
2019-02-07T02:18:01.538Z,9.48
2019-02-07T02:20:34.201Z,12.58
2019-02-07T02:23:12.113Z,11.47
2019-02-07T02:25:45.912Z,11.30
2019-02-07T02:28:21.352Z,10.18
2019-02-07T02:31:10.986Z,12.82
2019-02-07T02:33:42.583Z,13.22
2019-02-07T02:36:19.985Z,14.20
2019-02-07T02:38:51.946Z,15.45
2019-02-07T02:41:33.934Z,11.57
2019-02-07T02:44:38.567Z,12.82
2019-02-07T02:47:23.519Z,10.90
2019-02-07T02:50:08.711Z,11.63
2019-02-07T02:52:40.571Z,11.85
2019-02-07T02:55:14.263Z,10.08
2019-02-07T02:57:54.517Z,11.43
2019-02-07T03:00:57.730Z,10.23
2019-02-07T03:04:01.942Z,11.93
2019-02-07T03:07:11.855Z,14.30
2019-02-07T03:10:05.257Z,11.97
2019-02-07T03:12:55.548Z,14.50
2019-02-07T03:15:51.254Z,13.48
2019-02-07T03:18:47.395Z,10.35
2019-02-07T03:32:15.928Z,11.23
2019-02-07T03:35:32.093Z,11.45
2019-02-07T03:42:05.394Z,13.70
2019-02-07T03:45:04.256Z,15.70
2019-02-07T03:51:56.832Z,15.93
2019-02-07T03:58:25.826Z,16.00
2019-02-07T04:01:32.009Z,13.07
2019-02-07T04:08:51.279Z,14.45
2019-02-07T04:11:47.508Z,16.12
2019-02-07T04:14:43.129Z,14.47
2019-02-07T04:25:47.628Z,15.78
2019-02-07T04:28:47.642Z,16.90
2019-02-07T04:31:42.954Z,14.00
2019-02-07T04:34:32.019Z,15.23
2019-02-07T04:41:04.725Z,16.00
2019-02-07T04:48:33.564Z,14.75
2019-02-07T04:59:26.970Z,14.70
2019-02-07T05:02:12.442Z,15.98
2019-02-07T05:05:03.173Z,15.37
2019-02-07T05:08:02.984Z,15.40
2019-02-07T05:13:47.431Z,14.85
2019-02-07T05:16:59.534Z,10.98
2019-02-07T05:20:07.847Z,17.80
2019-02-07T05:22:59.469Z,19.00
2019-02-07T05:29:15.208Z,19.02
2019-02-07T05:32:03.503Z,17.10
2019-02-07T05:34:45.642Z,18.32
2019-02-07T05:37:35.113Z,17.55
2019-02-07T05:40:28.098Z,15.65
2019-02-07T05:43:17.214Z,17.23
2019-02-07T05:46:25.848Z,19.05
2019-02-07T05:49:23.498Z,20.02
2019-02-07T05:52:24.487Z,22.35
2019-02-07T05:55:26.710Z,20.95
2019-02-07T05:58:24.922Z,20.52
2019-02-07T06:01:15.945Z,22.82
2019-02-07T06:03:56.000Z,18.95
2019-02-07T06:06:43.925Z,24.43
2019-02-07T06:09:33.464Z,20.27
2019-02-07T06:12:22.822Z,24.00
2019-02-07T06:15:10.919Z,21.30
2019-02-07T06:18:06.598Z,21.57
2019-02-07T06:20:54.975Z,25.80
2019-02-07T06:23:47.834Z,22.93
2019-02-07T06:26:32.790Z,19.93
2019-02-07T06:29:34.365Z,24.47
2019-02-07T06:32:13.482Z,26.50
2019-02-07T06:35:01.543Z,26.17
2019-02-07T06:38:06.228Z,27.93
2019-02-07T06:40:51.345Z,25.82
2019-02-07T06:43:41.169Z,35.15
2019-02-07T06:46:45.932Z,33.18
2019-02-07T06:49:33.853Z,33.40
2019-02-07T06:52:22.245Z,29.85
2019-02-07T06:55:21.545Z,26.15
2019-02-07T06:58:14.967Z,33.65
2019-02-07T07:00:54.342Z,22.98
2019-02-07T07:03:59.040Z,29.42
2019-02-07T07:06:49.264Z,32.23
2019-02-07T07:09:38.688Z,30.37
2019-02-07T07:12:37.274Z,27.35
2019-02-07T07:15:30.592Z,28.00
2019-02-07T07:18:19.551Z,33.80
2019-02-07T07:21:07.441Z,27.67
2019-02-07T07:23:55.748Z,28.90
2019-02-07T07:26:42.511Z,32.88
2019-02-07T07:29:39.639Z,29.50
2019-02-07T07:32:35.098Z,30.90
2019-02-07T07:35:31.128Z,29.80
2019-02-07T07:38:25.356Z,27.67
2019-02-07T07:41:13.463Z,33.80
2019-02-07T07:44:01.742Z,35.73
2019-02-07T07:46:49.554Z,32.78
2019-02-07T07:49:41.932Z,29.37
2019-02-07T07:52:34.148Z,35.23
2019-02-07T07:55:24.092Z,28.32
2019-02-07T07:58:25.614Z,33.78
2019-02-07T08:01:13.674Z,29.93
2019-02-07T08:03:52.863Z,39.40
2019-02-07T08:06:51.308Z,36.50
2019-02-07T08:09:53.124Z,38.85
2019-02-07T08:12:42.541Z,34.27
2019-02-07T08:15:35.165Z,34.73
2019-02-07T08:18:24.728Z,39.33
2019-02-07T08:21:04.148Z,36.58
2019-02-07T08:23:53.577Z,37.55
2019-02-07T08:26:41.434Z,38.83
2019-02-07T08:29:34.440Z,36.53
2019-02-07T08:32:26.748Z,40.57
2019-02-07T08:35:09.911Z,37.55
2019-02-07T08:38:05.248Z,38.38
2019-02-07T08:40:53.909Z,41.00
2019-02-07T08:43:42.537Z,35.25
2019-02-07T08:46:30.912Z,43.87
2019-02-07T08:49:26.512Z,41.88
2019-02-07T08:52:16.352Z,46.70
2019-02-07T08:55:04.255Z,40.58
2019-02-07T08:57:52.367Z,49.85
2019-02-07T09:00:50.984Z,43.40
2019-02-07T09:03:44.018Z,43.92
2019-02-07T09:06:31.925Z,39.10
2019-02-07T09:09:25.860Z,41.73
2019-02-07T09:12:12.968Z,39.35
2019-02-07T09:15:11.939Z,44.38
2019-02-07T09:18:13.268Z,48.07
2019-02-07T09:21:00.093Z,50.98
2019-02-07T09:23:52.012Z,47.17
2019-02-07T09:26:38.024Z,47.53
2019-02-07T09:29:26.104Z,49.10
2019-02-07T09:32:14.655Z,47.58
2019-02-07T09:35:07.189Z,48.35
2019-02-07T09:38:00.543Z,57.88
2019-02-07T09:40:50.408Z,49.48
2019-02-07T09:43:45.667Z,52.25
2019-02-07T09:46:30.180Z,55.88
2019-02-07T09:49:18.250Z,49.90
2019-02-07T09:52:13.438Z,48.08
2019-02-07T09:55:00.299Z,53.25
2019-02-07T09:57:49.688Z,52.33
2019-02-07T10:00:39.264Z,53.90
2019-02-07T10:03:19.649Z,52.65
2019-02-07T10:06:15.148Z,59.15
2019-02-07T10:09:22.932Z,56.48
2019-02-07T10:12:18.211Z,57.17
2019-02-07T10:15:22.914Z,59.33
2019-02-07T10:18:33.161Z,53.87
2019-02-07T10:21:17.034Z,59.77
2019-02-07T10:24:03.685Z,61.18
2019-02-07T10:26:55.918Z,56.98
2019-02-07T10:29:44.085Z,57.67
2019-02-07T10:32:36.348Z,55.55
2019-02-07T10:35:23.118Z,54.67
2019-02-07T10:38:07.336Z,57.80
2019-02-07T10:41:11.760Z,55.70
2019-02-07T10:44:01.981Z,61.85
2019-02-07T10:46:53.350Z,56.50
2019-02-07T10:49:42.848Z,54.85
2019-02-07T10:52:47.443Z,65.30
2019-02-07T10:55:38.333Z,62.90
2019-02-07T10:58:27.890Z,54.27
2019-02-07T11:01:17.213Z,58.28
2019-02-07T11:04:09.853Z,60.25
2019-02-07T11:06:59.538Z,62.33
2019-02-07T11:09:48.260Z,64.95
2019-02-07T11:12:41.865Z,50.10
2019-02-07T11:15:39.671Z,58.23
2019-02-07T11:18:27.948Z,57.65
2019-02-07T11:21:26.879Z,57.17
2019-02-07T11:24:19.288Z,57.13
2019-02-07T11:27:07.764Z,63.15
2019-02-07T11:30:06.041Z,54.45
2019-02-07T11:32:55.457Z,65.05
2019-02-07T11:35:53.134Z,59.98
2019-02-07T11:38:45.416Z,61.15
2019-02-07T11:41:33.725Z,60.95
2019-02-07T11:44:29.221Z,67.70
2019-02-07T11:47:12.528Z,63.33
2019-02-07T11:50:10.971Z,63.80
2019-02-07T11:52:55.251Z,64.30
2019-02-07T11:55:42.168Z,61.08
2019-02-07T11:58:30.058Z,61.95
2019-02-07T12:01:18.278Z,62.55
2019-02-07T12:04:06.558Z,67.70
2019-02-07T12:06:54.630Z,62.00
2019-02-07T12:09:42.620Z,57.33
2019-02-07T12:12:44.273Z,57.48
2019-02-07T12:15:32.633Z,64.30
2019-02-07T12:18:31.042Z,62.08
2019-02-07T12:21:18.965Z,60.33
2019-02-07T12:24:02.371Z,66.70
2019-02-07T12:26:51.786Z,63.15
2019-02-07T12:29:44.632Z,60.45
2019-02-07T12:32:36.585Z,60.23
2019-02-07T12:35:36.349Z,64.62
2019-02-07T12:38:43.932Z,59.75
2019-02-07T12:41:36.196Z,66.85
2019-02-07T12:44:27.352Z,61.30
2019-02-07T12:47:14.384Z,67.78
2019-02-07T12:50:02.315Z,65.10
2019-02-07T12:52:58.720Z,75.12
2019-02-07T12:55:52.361Z,65.20
2019-02-07T12:58:48.758Z,71.25
2019-02-07T13:01:41.579Z,76.87
2019-02-07T13:04:36.115Z,71.87
2019-02-07T13:07:25.400Z,72.95
2019-02-07T13:10:13.790Z,72.25
2019-02-07T13:13:12.447Z,73.70
2019-02-07T13:16:02.332Z,76.50
2019-02-07T13:18:50.699Z,70.08
2019-02-07T13:21:53.940Z,72.87
2019-02-07T13:24:52.822Z,71.80
2019-02-07T13:27:54.090Z,74.67
2019-02-07T13:30:46.399Z,75.87
2019-02-07T13:33:23.885Z,70.37
2019-02-07T13:36:15.847Z,71.22
2019-02-07T13:39:17.351Z,79.25
2019-02-07T13:42:09.651Z,76.20
2019-02-07T13:45:05.078Z,75.52
2019-02-07T13:47:53.244Z,72.87
2019-02-07T13:50:41.396Z,73.97
2019-02-07T13:53:29.656Z,77.72
2019-02-07T13:56:15.769Z,70.85
2019-02-07T13:59:03.477Z,76.45
2019-02-07T14:01:52.909Z,75.05
2019-02-07T14:04:47.878Z,78.83
2019-02-07T14:07:49.334Z,75.72
2019-02-07T14:10:44.886Z,81.80
2019-02-07T14:13:41.123Z,75.17
2019-02-07T14:16:36.444Z,75.85
2019-02-07T14:19:20.410Z,77.00
2019-02-07T14:22:27.671Z,75.95
2019-02-07T14:25:20.109Z,75.17
2019-02-07T14:28:08.735Z,78.33
2019-02-07T14:31:06.217Z,77.50
2019-02-07T14:34:03.713Z,83.42
2019-02-07T14:36:59.078Z,84.42
2019-02-07T14:39:46.656Z,75.37
2019-02-07T14:42:36.080Z,79.20
2019-02-07T14:45:33.184Z,81.78
2019-02-07T14:48:03.801Z,76.42
2019-02-07T14:50:34.339Z,76.50
2019-02-07T14:53:06.677Z,86.00
2019-02-07T14:55:37.275Z,77.97
2019-02-07T14:58:10.211Z,87.00
2019-02-07T15:00:40.722Z,86.70
2019-02-07T15:03:11.304Z,87.60
2019-02-07T15:05:41.928Z,89.55
2019-02-07T15:08:12.656Z,86.32
2019-02-07T15:10:43.226Z,83.67
2019-02-07T15:13:13.821Z,87.17
2019-02-07T15:15:44.452Z,87.15
2019-02-07T15:18:14.990Z,84.45
2019-02-07T15:20:45.864Z,80.65
2019-02-07T15:23:16.484Z,89.25
2019-02-07T15:25:47.049Z,78.87
2019-02-07T15:28:17.576Z,75.10
2019-02-07T15:30:48.146Z,80.40
2019-02-07T15:33:18.708Z,80.15
2019-02-07T15:35:51.037Z,77.17
2019-02-07T15:38:22.712Z,77.50
2019-02-07T15:40:54.582Z,84.22
2019-02-07T15:43:25.403Z,77.12
2019-02-07T15:45:56.317Z,79.12
2019-02-07T15:48:26.831Z,77.17
2019-02-07T15:50:57.529Z,79.10
2019-02-07T15:53:28.144Z,71.42
2019-02-07T15:55:58.711Z,74.62
2019-02-07T15:58:41.324Z,84.40
2019-02-07T16:01:20.951Z,71.28
2019-02-07T16:04:06.965Z,80.65
2019-02-07T16:06:37.454Z,77.97
2019-02-07T16:09:08.844Z,83.52
2019-02-07T16:11:39.392Z,83.87
2019-02-07T16:14:09.919Z,87.17
2019-02-07T16:16:40.424Z,87.10
2019-02-07T16:19:10.944Z,94.00
2019-02-07T16:21:41.558Z,90.83
2019-02-07T16:24:12.160Z,87.25
2019-02-07T16:26:42.763Z,91.20
2019-02-07T16:29:13.503Z,98.67
2019-02-07T16:31:45.077Z,96.30
2019-02-07T16:34:18.711Z,79.45
2019-02-07T16:36:48.616Z,102.05
2019-02-07T16:39:20.620Z,80.75
2019-02-07T16:41:51.431Z,83.10
2019-02-07T16:44:22.283Z,78.60
2019-02-07T16:46:54.529Z,76.45
2019-02-07T16:49:25.443Z,77.22
2019-02-07T16:51:56.112Z,80.77
2019-02-07T16:54:28.141Z,79.82
2019-02-07T16:56:58.755Z,82.33
2019-02-07T16:59:29.888Z,84.50
2019-02-07T17:02:01.413Z,83.30
2019-02-07T17:04:32.062Z,76.67
2019-02-07T17:07:02.749Z,83.70
2019-02-07T17:09:36.291Z,79.20
2019-02-07T17:12:07.377Z,76.12
2019-02-07T17:14:38.142Z,72.27
2019-02-07T17:17:08.705Z,69.80
2019-02-07T17:19:39.360Z,70.35
2019-02-07T17:22:10.007Z,79.30
2019-02-07T17:24:40.858Z,73.78
2019-02-07T17:27:11.550Z,74.80
2019-02-07T17:29:42.198Z,82.42
2019-02-07T17:32:12.850Z,77.12
2019-02-07T17:34:43.428Z,82.37
2019-02-07T17:37:13.984Z,73.52
2019-02-07T17:39:45.066Z,79.37
2019-02-07T17:42:16.725Z,72.70
2019-02-07T17:44:47.910Z,71.05
2019-02-07T17:47:18.502Z,79.20
2019-02-07T17:49:49.206Z,65.25
2019-02-07T17:52:19.793Z,70.12
2019-02-07T17:54:50.507Z,69.80
2019-02-07T17:57:21.481Z,70.52
2019-02-07T17:59:52.116Z,69.53
2019-02-07T18:02:22.853Z,67.70
2019-02-07T18:04:53.715Z,69.55
2019-02-07T18:07:24.830Z,69.15
2019-02-07T18:09:55.559Z,68.07
2019-02-07T18:12:26.597Z,65.95
2019-02-07T18:14:58.790Z,66.77
2019-02-07T18:17:29.474Z,70.42
2019-02-07T18:20:00.394Z,67.45
2019-02-07T18:22:31.324Z,72.70
2019-02-07T18:25:01.942Z,71.92
2019-02-07T18:27:32.994Z,70.15
2019-02-07T18:30:03.702Z,69.58
2019-02-07T18:32:34.727Z,72.80
2019-02-07T18:35:06.346Z,72.22
2019-02-07T18:37:37.014Z,67.25
2019-02-07T18:40:09.558Z,72.80
2019-02-07T18:42:40.527Z,60.73
2019-02-07T18:45:12.140Z,63.48
2019-02-07T18:47:43.095Z,59.83
2019-02-07T18:50:26.549Z,62.90
2019-02-07T18:52:57.497Z,66.05
2019-02-07T18:55:28.151Z,64.55
2019-02-07T18:57:59.042Z,67.55
2019-02-07T19:00:33.086Z,63.17
2019-02-07T19:03:06.943Z,63.60
2019-02-07T19:05:39.074Z,61.28
2019-02-07T19:08:09.787Z,62.95
2019-02-07T19:10:40.972Z,64.20
2019-02-07T19:13:11.879Z,57.03
2019-02-07T19:15:45.384Z,63.30
2019-02-07T19:18:16.142Z,66.42
2019-02-07T19:20:46.785Z,60.60
2019-02-07T19:23:17.653Z,64.12
2019-02-07T19:25:48.335Z,57.83
2019-02-07T19:28:18.973Z,61.35
2019-02-07T19:30:49.712Z,63.08
2019-02-07T19:33:22.513Z,57.78
2019-02-07T19:35:52.610Z,63.95
2019-02-07T19:38:23.746Z,61.18
2019-02-07T19:40:54.517Z,60.55
2019-02-07T19:43:25.328Z,61.25
2019-02-07T19:45:56.094Z,67.42
2019-02-07T19:48:26.807Z,67.87
2019-02-07T19:50:57.703Z,63.40
2019-02-07T19:53:28.364Z,61.83
2019-02-07T19:55:59.301Z,62.30
2019-02-07T19:58:30.129Z,64.07
2019-02-07T20:01:00.796Z,62.90
2019-02-07T20:03:32.824Z,62.23
2019-02-07T20:06:04.671Z,59.85
2019-02-07T20:08:35.537Z,65.17
2019-02-07T20:11:06.746Z,66.87
2019-02-07T20:13:37.496Z,63.38
2019-02-07T20:16:09.101Z,56.42
2019-02-07T20:18:40.202Z,77.32
2019-02-07T20:21:11.056Z,63.60
2019-02-07T20:23:41.749Z,66.15
2019-02-07T20:26:12.348Z,61.42
2019-02-07T20:28:43.119Z,60.58
2019-02-07T20:31:13.750Z,67.03
2019-02-07T20:33:44.567Z,62.17
2019-02-07T20:36:20.544Z,59.88
2019-02-07T20:38:51.626Z,62.00
2019-02-07T20:41:22.317Z,58.70
2019-02-07T20:43:53.017Z,61.60
2019-02-07T20:46:23.813Z,59.20
2019-02-07T20:48:54.766Z,64.45
2019-02-07T20:51:25.463Z,55.03
2019-02-07T20:53:56.197Z,57.67
2019-02-07T20:56:27.051Z,58.92
2019-02-07T20:58:57.754Z,59.13
2019-02-07T21:01:28.679Z,61.15
2019-02-07T21:03:59.673Z,58.45
2019-02-07T21:06:30.636Z,64.30
2019-02-07T21:09:01.413Z,58.05
2019-02-07T21:11:33.774Z,60.58
2019-02-07T21:14:04.954Z,59.33
2019-02-07T21:16:36.723Z,56.88
2019-02-07T21:19:07.683Z,55.40
2019-02-07T21:21:38.657Z,56.60
2019-02-07T21:24:09.804Z,59.88
2019-02-07T21:26:40.503Z,61.40
2019-02-07T21:29:11.371Z,56.23
2019-02-07T21:31:42.556Z,56.28
2019-02-07T21:34:13.539Z,59.90
2019-02-07T21:36:44.713Z,59.00
2019-02-07T21:39:15.387Z,60.95
2019-02-07T21:41:46.058Z,62.27
2019-02-07T21:44:17.134Z,60.35
2019-02-07T21:46:48.803Z,57.00
2019-02-07T21:49:19.770Z,56.58
2019-02-07T21:51:50.696Z,57.35
2019-02-07T21:54:21.993Z,57.38
2019-02-07T21:56:52.955Z,58.55
2019-02-07T21:59:24.436Z,57.30
2019-02-07T22:01:55.677Z,58.92
2019-02-07T22:04:27.538Z,56.48
2019-02-07T22:06:58.622Z,55.65
2019-02-07T22:09:29.678Z,54.48
2019-02-07T22:12:00.651Z,52.45
2019-02-07T22:14:31.813Z,50.05
2019-02-07T22:17:05.618Z,52.65
2019-02-07T22:19:36.626Z,48.70
2019-02-07T22:22:07.532Z,47.13
2019-02-07T22:24:38.577Z,50.33
2019-02-07T22:27:09.541Z,50.43
2019-02-07T22:29:40.311Z,46.88
2019-02-07T22:32:12.337Z,49.30
2019-02-07T22:34:43.148Z,47.50
2019-02-07T22:37:14.086Z,41.53
2019-02-07T22:39:45.092Z,45.33
2019-02-07T22:42:16.815Z,45.38
2019-02-07T22:44:47.632Z,46.65
2019-02-07T22:47:18.664Z,41.65
2019-02-07T22:49:49.746Z,44.23
2019-02-07T22:52:21.016Z,43.70
2019-02-07T22:54:51.855Z,46.13
2019-02-07T22:57:22.860Z,44.27
2019-02-07T23:00:02.537Z,43.92
2019-02-07T23:02:30.689Z,44.25
2019-02-07T23:05:02.241Z,46.68
2019-02-07T23:07:34.400Z,43.95
2019-02-07T23:10:07.002Z,43.40
2019-02-07T23:12:37.748Z,44.10
2019-02-07T23:15:09.443Z,44.08
2019-02-07T23:17:40.560Z,43.52
2019-02-07T23:20:13.093Z,42.35
2019-02-07T23:22:43.848Z,44.20
2019-02-07T23:25:14.748Z,42.20
2019-02-07T23:27:45.472Z,42.73
2019-02-07T23:30:17.873Z,39.95
2019-02-07T23:32:48.898Z,38.58
2019-02-07T23:35:19.744Z,41.20
2019-02-07T23:37:50.958Z,41.15
2019-02-07T23:40:22.067Z,37.80
2019-02-07T23:42:53.308Z,39.73
2019-02-07T23:45:24.093Z,39.23
2019-02-07T23:47:54.771Z,39.30
2019-02-07T23:50:25.547Z,40.63
2019-02-07T23:52:56.510Z,39.92
2019-02-07T23:55:27.496Z,38.88
2019-02-07T23:57:58.704Z,39.18
